aviador You're here:

LEAS Decoded Metar

ASTURIAS in SPAIN
Report Time2018-01-18 01:30:00
UTC Time2018-01-18 01:47:55
Flight Rules mvfr MVFR
Wind240° at 07 kt
W.Decomp.*RWY 29: 4.8 kt HW 5.1 kt LCW
W.Rank240° ranks 1
Current wind is above 240° avg. (6.5)
Visibility5000 m
Phenomena:Mist
Clouds:N/A
Expected CloudBase > 1,200 ft AGL from Temp-Dew spread
CeilingNone
Temp06°C (ISA -8)
Dew Point03°C (81% RH)
AAT2.0°C
QNH1026 hPa
Density Alt-876 ft
Elevation440 ft
Report Wrong Elevation
Raw Report
LEAS 180130Z AUTO 24007KT 5000 BR NSC 06/03 Q1026=

Extra information for LEAS:More info

Metar Taf Metar & Taf Last 4 Metars F.Rules Stats Wind Profile Meteogram Temp Stats Airport Information Weather charts Add Link Nearby VenuesMetar ALERT Operation Metar Decoded Social comments